Time;durP1;ratioP1;P1;durP2;ratioP2;P2;SDS_P1;SDS_P2;PMS_P1;PMS_P2;Temp;Humidity;BMP_temperature;BMP_pressure;BME280_temperature;BME280_humidity;BME280_pressure;Samples;Min_cycle;Max_cycle;Signal;HPM_P1;HPM_P2
2024/02/16 00:01:33;;;;;;;1.27;0.90;;;;;;;;;;5123544;27;20675;-75
2024/02/16 00:04:03;;;;;;;4.43;1.30;;;;;;;;;;5123450;27;20047;-75
2024/02/16 00:07:14;;;;;;;2.03;0.90;;;;;;;;;;5123153;27;20952;-74
2024/02/16 00:09:55;;;;;;;3.08;1.13;;;;;;;;;;5099480;27;20611;-75
2024/02/16 00:12:26;;;;;;;2.20;1.20;;;;;;;;;;5123105;27;20066;-76
2024/02/16 00:14:57;;;;;;;5.03;1.92;;;;;;;;;;5123404;27;20055;-85
2024/02/16 00:17:28;;;;;;;6.05;1.65;;;;;;;;;;5123644;27;20396;-76
2024/02/16 00:20:00;;;;;;;4.63;1.52;;;;;;;;;;5122988;27;20051;-75
2024/02/16 00:22:31;;;;;;;1.92;1.27;;;;;;;;;;5123355;27;20062;-76
2024/02/16 00:25:03;;;;;;;5.65;2.05;;;;;;;;;;5122324;27;20069;-74
2024/02/16 00:27:33;;;;;;;2.38;1.20;;;;;;;;;;5123249;27;20047;-73
2024/02/16 00:30:04;;;;;;;5.68;1.50;;;;;;;;;;5123749;27;20039;-74
2024/02/16 00:32:36;;;;;;;2.50;1.33;;;;;;;;;;5123571;27;20051;-74
2024/02/16 00:35:07;;;;;;;2.00;1.17;;;;;;;;;;5122778;27;20852;-73
2024/02/16 00:37:37;;;;;;;6.53;1.40;;;;;;;;;;5123538;27;20069;-74
2024/02/16 00:40:09;;;;;;;2.45;1.08;;;;;;;;;;5122542;27;20414;-75
2024/02/16 00:42:40;;;;;;;3.60;1.17;;;;;;;;;;5123202;27;20047;-78
2024/02/16 00:45:10;;;;;;;4.05;1.55;;;;;;;;;;5121302;27;20066;-74
2024/02/16 00:47:40;;;;;;;4.80;1.27;;;;;;;;;;5121689;27;20059;-73
2024/02/16 00:50:11;;;;;;;3.83;1.98;;;;;;;;;;5120802;27;20066;-74
2024/02/16 00:52:42;;;;;;;3.10;1.40;;;;;;;;;;5119031;27;20425;-74
2024/02/16 00:55:13;;;;;;;5.90;1.80;;;;;;;;;;5121350;27;20600;-73
2024/02/16 00:57:43;;;;;;;4.00;1.75;;;;;;;;;;5121802;27;20055;-75
2024/02/16 01:00:15;;;;;;;4.40;1.40;;;;;;;;;;5122149;27;20502;-77
2024/02/16 01:02:45;;;;;;;2.63;1.35;;;;;;;;;;5122149;27;20410;-73
2024/02/16 01:05:17;;;;;;;5.20;1.85;;;;;;;;;;5122032;27;20074;-74
2024/02/16 01:07:48;;;;;;;4.53;1.20;;;;;;;;;;5121800;27;20051;-73
2024/02/16 01:10:17;;;;;;;5.85;1.40;;;;;;;;;;5120867;27;20658;-73
2024/02/16 01:12:49;;;;;;;6.03;1.98;;;;;;;;;;5120572;27;20058;-76
2024/02/16 01:15:19;;;;;;;3.03;1.75;;;;;;;;;;5121807;27;20043;-72
2024/02/16 01:17:49;;;;;;;1.33;0.98;;;;;;;;;;5121604;27;20055;-75
2024/02/16 01:20:20;;;;;;;4.85;1.45;;;;;;;;;;5121911;27;20517;-75
2024/02/16 01:22:51;;;;;;;5.45;1.35;;;;;;;;;;5122995;27;20058;-73
2024/02/16 01:25:22;;;;;;;5.82;1.48;;;;;;;;;;5122065;27;20047;-73
2024/02/16 01:27:52;;;;;;;2.78;1.17;;;;;;;;;;5121954;27;20067;-72
2024/02/16 01:30:22;;;;;;;1.65;1.00;;;;;;;;;;5122533;28;20086;-73
2024/02/16 01:32:52;;;;;;;3.35;1.30;;;;;;;;;;5122014;27;20062;-75
2024/02/16 01:35:23;;;;;;;3.30;1.60;;;;;;;;;;5121842;27;20078;-77
2024/02/16 01:37:54;;;;;;;2.53;1.33;;;;;;;;;;5125924;27;20047;-74
2024/02/16 01:40:26;;;;;;;10.05;1.58;;;;;;;;;;5127069;27;20046;-74
2024/02/16 01:42:56;;;;;;;4.18;1.75;;;;;;;;;;5125622;27;20063;-75
2024/02/16 01:45:26;;;;;;;4.28;1.33;;;;;;;;;;5126113;27;20055;-74
2024/02/16 01:47:58;;;;;;;4.05;1.25;;;;;;;;;;5126110;27;20058;-74
2024/02/16 01:50:30;;;;;;;3.00;1.00;;;;;;;;;;5126403;27;20051;-74
2024/02/16 01:53:36;;;;;;;1.98;1.20;;;;;;;;;;5125922;27;20054;-73
2024/02/16 01:56:07;;;;;;;2.95;1.27;;;;;;;;;;5125539;27;20055;-74
2024/02/16 01:58:38;;;;;;;3.40;1.33;;;;;;;;;;5126448;27;20425;-73
2024/02/16 02:01:25;;;;;;;2.30;0.90;;;;;;;;;;5126441;27;20062;-75
2024/02/16 02:03:57;;;;;;;4.40;0.90;;;;;;;;;;5126547;27;20051;-74
2024/02/16 02:06:27;;;;;;;3.00;1.15;;;;;;;;;;5125886;27;20528;-72
2024/02/16 02:08:57;;;;;;;1.73;1.10;;;;;;;;;;5125256;27;20055;-73
2024/02/16 02:11:27;;;;;;;3.90;1.30;;;;;;;;;;5125343;27;20082;-75
2024/02/16 02:13:58;;;;;;;1.38;0.80;;;;;;;;;;5124552;27;20054;-73
2024/02/16 02:16:29;;;;;;;4.95;1.40;;;;;;;;;;5125758;27;20669;-75
2024/02/16 02:19:08;;;;;;;2.58;0.98;;;;;;;;;;5124875;27;20051;-75
2024/02/16 02:21:38;;;;;;;34.30;2.58;;;;;;;;;;5125354;27;20051;-75
2024/02/16 02:24:10;;;;;;;2.00;1.00;;;;;;;;;;5125099;27;20168;-73
2024/02/16 02:26:41;;;;;;;1.45;0.80;;;;;;;;;;5125648;27;20700;-72
2024/02/16 02:29:11;;;;;;;2.60;0.98;;;;;;;;;;5124965;27;20055;-74
2024/02/16 02:31:41;;;;;;;4.43;0.98;;;;;;;;;;5124246;27;20054;-73
2024/02/16 02:34:12;;;;;;;1.15;0.77;;;;;;;;;;5125906;27;20109;-75
2024/02/16 02:36:44;;;;;;;2.28;0.77;;;;;;;;;;5125046;27;20051;-75
2024/02/16 02:39:14;;;;;;;0.50;0.50;;;;;;;;;;5125105;27;20054;-73
2024/02/16 02:42:32;;;;;;;0.80;0.70;;;;;;;;;;5125083;27;20067;-73
2024/02/16 02:45:08;;;;;;;2.38;0.98;;;;;;;;;;5124911;27;20043;-74
2024/02/16 02:47:40;;;;;;;1.83;0.90;;;;;;;;;;5124526;27;20450;-74
2024/02/16 02:50:10;;;;;;;2.65;0.70;;;;;;;;;;5125804;27;20047;-74
2024/02/16 02:52:41;;;;;;;3.70;0.52;;;;;;;;;;5125207;27;20531;-75
2024/02/16 02:55:11;;;;;;;4.50;1.05;;;;;;;;;;5124780;27;20521;-73
2024/02/16 02:57:42;;;;;;;0.52;0.52;;;;;;;;;;5124037;27;20058;-75
2024/02/16 03:00:12;;;;;;;2.75;0.93;;;;;;;;;;5124970;27;20540;-73
2024/02/16 03:02:44;;;;;;;3.10;0.70;;;;;;;;;;5124511;27;20058;-72
2024/02/16 03:05:14;;;;;;;2.90;0.90;;;;;;;;;;5125140;27;20489;-73
2024/02/16 03:07:45;;;;;;;3.17;0.75;;;;;;;;;;5125270;27;20062;-72
2024/02/16 03:10:21;;;;;;;2.58;0.73;;;;;;;;;;5124629;27;20050;-73
2024/02/16 03:12:51;;;;;;;3.40;0.82;;;;;;;;;;5124857;27;20043;-75
2024/02/16 03:15:21;;;;;;;3.33;1.30;;;;;;;;;;5123891;27;20051;-73
2024/02/16 03:17:51;;;;;;;4.70;1.00;;;;;;;;;;5124833;27;20062;-75
2024/02/16 03:20:22;;;;;;;1.20;0.88;;;;;;;;;;5125071;27;20042;-72
2024/02/16 03:22:53;;;;;;;2.70;1.27;;;;;;;;;;5124610;27;20054;-74
2024/02/16 03:25:24;;;;;;;1.52;0.88;;;;;;;;;;5125125;27;20047;-73
2024/02/16 03:27:54;;;;;;;6.00;1.30;;;;;;;;;;5124473;27;20051;-75
2024/02/16 03:30:24;;;;;;;4.20;1.40;;;;;;;;;;5124921;27;20047;-75
2024/02/16 03:32:55;;;;;;;2.05;1.00;;;;;;;;;;5125215;27;20503;-75
2024/02/16 03:35:45;;;;;;;1.70;1.10;;;;;;;;;;5125100;27;20054;-71
2024/02/16 03:41:47;;;;;;;3.75;0.80;;;;;;;;;;5124105;27;20047;-73
2024/02/16 03:44:21;;;;;;;2.85;1.10;;;;;;;;;;5123687;27;20055;-74
2024/02/16 03:46:52;;;;;;;2.53;0.98;;;;;;;;;;5123688;27;20513;-73
2024/02/16 03:49:27;;;;;;;5.53;1.17;;;;;;;;;;5122646;27;20058;-72
2024/02/16 03:51:59;;;;;;;1.42;0.80;;;;;;;;;;5124475;27;20039;-73
2024/02/16 03:54:31;;;;;;;1.35;0.70;;;;;;;;;;5124124;27;20047;-76
2024/02/16 03:57:03;;;;;;;2.75;0.85;;;;;;;;;;5124147;27;20524;-76
2024/02/16 03:59:35;;;;;;;2.25;0.95;;;;;;;;;;5123811;27;20050;-74
2024/02/16 04:02:07;;;;;;;2.70;0.90;;;;;;;;;;5122762;27;20082;-72
2024/02/16 04:04:38;;;;;;;1.00;0.77;;;;;;;;;;5122791;27;20506;-74
2024/02/16 04:07:08;;;;;;;1.45;0.90;;;;;;;;;;5122877;27;20055;-73
2024/02/16 04:09:38;;;;;;;2.25;0.98;;;;;;;;;;5123428;27;20604;-75
2024/02/16 04:12:10;;;;;;;2.72;0.80;;;;;;;;;;5123895;27;20062;-73
2024/02/16 04:14:41;;;;;;;4.63;0.90;;;;;;;;;;5123842;27;20051;-74
2024/02/16 04:17:12;;;;;;;2.22;0.85;;;;;;;;;;5123221;27;20050;-73
2024/02/16 04:19:42;;;;;;;4.18;1.10;;;;;;;;;;5123584;27;20054;-74
2024/02/16 04:22:12;;;;;;;0.75;0.75;;;;;;;;;;5123012;27;20066;-73
2024/02/16 04:24:42;;;;;;;1.92;0.80;;;;;;;;;;5123099;27;20421;-74
2024/02/16 04:27:13;;;;;;;2.85;1.17;;;;;;;;;;5123764;27;20521;-74
2024/02/16 04:29:49;;;;;;;0.98;0.50;;;;;;;;;;5121311;27;20437;-74
2024/02/16 04:32:20;;;;;;;1.83;0.70;;;;;;;;;;5122986;27;20070;-75
2024/02/16 04:34:49;;;;;;;3.17;1.10;;;;;;;;;;5122071;27;20129;-74
2024/02/16 04:37:22;;;;;;;3.63;1.00;;;;;;;;;;5123230;27;20093;-76
2024/02/16 04:39:53;;;;;;;1.75;0.90;;;;;;;;;;5123959;27;20084;-75
2024/02/16 04:42:23;;;;;;;3.33;0.85;;;;;;;;;;5122538;27;20051;-76
2024/02/16 04:44:54;;;;;;;2.92;0.77;;;;;;;;;;5122473;27;20055;-75
2024/02/16 04:47:26;;;;;;;2.42;1.17;;;;;;;;;;5122984;27;20047;-76
2024/02/16 04:50:52;;;;;;;2.28;0.80;;;;;;;;;;5122340;27;20047;-74
2024/02/16 04:53:26;;;;;;;0.50;0.50;;;;;;;;;;5117345;27;20047;-75
2024/02/16 04:55:57;;;;;;;2.53;0.80;;;;;;;;;;5122267;27;20055;-74
2024/02/16 04:58:26;;;;;;;3.45;0.90;;;;;;;;;;5122434;27;20047;-77
2024/02/16 05:00:59;;;;;;;1.63;1.05;;;;;;;;;;5123547;27;20065;-76
2024/02/16 05:03:31;;;;;;;3.35;1.13;;;;;;;;;;5123185;27;20520;-75
2024/02/16 05:06:17;;;;;;;4.65;0.95;;;;;;;;;;5122504;27;20051;-75
2024/02/16 05:08:47;;;;;;;3.25;1.08;;;;;;;;;;5121705;27;20047;-74
2024/02/16 05:11:18;;;;;;;2.92;0.80;;;;;;;;;;5121708;27;20047;-76
2024/02/16 05:13:48;;;;;;;2.10;0.82;;;;;;;;;;5122836;28;20047;-74
2024/02/16 05:16:19;;;;;;;4.50;1.08;;;;;;;;;;5121910;27;20051;-75
2024/02/16 05:18:48;;;;;;;3.80;0.95;;;;;;;;;;5123148;28;20058;-73
2024/02/16 05:21:19;;;;;;;1.35;0.80;;;;;;;;;;5122570;27;20054;-75
2024/02/16 05:23:50;;;;;;;1.10;0.80;;;;;;;;;;5120432;27;20051;-75
2024/02/16 05:26:22;;;;;;;1.40;0.73;;;;;;;;;;5121726;27;20524;-77
2024/02/16 05:28:52;;;;;;;3.88;0.90;;;;;;;;;;5122255;27;20054;-75
2024/02/16 05:31:21;;;;;;;0.63;0.52;;;;;;;;;;5123542;28;20615;-73
2024/02/16 05:33:52;;;;;;;2.75;1.13;;;;;;;;;;5123040;28;20043;-75
2024/02/16 05:36:27;;;;;;;10.35;1.38;;;;;;;;;;5121589;27;20497;-76
2024/02/16 05:39:09;;;;;;;12.45;1.35;;;;;;;;;;5121930;27;20050;-74
2024/02/16 05:41:39;;;;;;;2.00;0.70;;;;;;;;;;5122469;28;20039;-74
2024/02/16 05:44:09;;;;;;;1.85;1.25;;;;;;;;;;5120998;27;20047;-75
2024/02/16 05:46:39;;;;;;;1.88;0.65;;;;;;;;;;5121169;27;20413;-74
2024/02/16 05:49:10;;;;;;;1.52;0.73;;;;;;;;;;5121491;27;20047;-75
2024/02/16 05:51:57;;;;;;;2.33;0.80;;;;;;;;;;5122244;27;20059;-76
2024/02/16 05:54:27;;;;;;;1.27;0.63;;;;;;;;;;5121374;27;20051;-76
2024/02/16 05:56:57;;;;;;;5.25;0.82;;;;;;;;;;5121153;27;20903;-75
2024/02/16 05:59:27;;;;;;;4.68;0.80;;;;;;;;;;5122371;28;20058;-77
2024/02/16 06:01:58;;;;;;;0.82;0.63;;;;;;;;;;5120379;27;20055;-77
2024/02/16 06:04:30;;;;;;;1.08;0.80;;;;;;;;;;5122754;28;20378;-75
2024/02/16 06:07:01;;;;;;;1.88;0.75;;;;;;;;;;5122530;27;20055;-75
2024/02/16 06:09:34;;;;;;;1.60;0.77;;;;;;;;;;5121909;27;20109;-73
2024/02/16 06:12:07;;;;;;;1.42;0.90;;;;;;;;;;5121629;27;20055;-75
2024/02/16 06:14:37;;;;;;;2.75;1.08;;;;;;;;;;5122616;28;20051;-76
2024/02/16 06:17:08;;;;;;;3.13;0.68;;;;;;;;;;5121322;27;20055;-75
2024/02/16 06:19:40;;;;;;;0.80;0.43;;;;;;;;;;5122267;27;20520;-74
2024/02/16 06:22:12;;;;;;;6.40;1.17;;;;;;;;;;5121951;27;20058;-75
2024/02/16 06:24:42;;;;;;;1.02;0.65;;;;;;;;;;5125398;27;20055;-76
2024/02/16 06:30:57;;;;;;;1.38;0.60;;;;;;;;;;5129345;27;20055;-75
2024/02/16 06:33:27;;;;;;;3.00;0.70;;;;;;;;;;5124865;27;20047;-76
2024/02/16 06:35:58;;;;;;;4.72;1.00;;;;;;;;;;5125930;27;20486;-75
2024/02/16 06:38:28;;;;;;;1.58;0.70;;;;;;;;;;5125315;27;20656;-73
2024/02/16 06:40:58;;;;;;;4.47;0.60;;;;;;;;;;5125969;27;20047;-75
2024/02/16 06:43:28;;;;;;;1.83;0.80;;;;;;;;;;5124325;27;20051;-73
2024/02/16 06:45:59;;;;;;;1.60;0.80;;;;;;;;;;5124815;27;20059;-73
2024/02/16 06:48:30;;;;;;;2.50;0.77;;;;;;;;;;5126470;27;20054;-74
2024/02/16 06:51:01;;;;;;;1.35;0.90;;;;;;;;;;5126020;27;20054;-74
2024/02/16 06:53:30;;;;;;;1.90;1.00;;;;;;;;;;5125967;27;20054;-74
2024/02/16 06:56:03;;;;;;;2.22;0.82;;;;;;;;;;5125632;27;20055;-76
2024/02/16 06:58:36;;;;;;;3.28;1.00;;;;;;;;;;5125578;27;20043;-75
2024/02/16 07:02:01;;;;;;;1.70;0.82;;;;;;;;;;5125770;27;20055;-77
2024/02/16 07:04:31;;;;;;;2.05;0.93;;;;;;;;;;5125286;27;20043;-73
2024/02/16 07:07:01;;;;;;;2.05;0.80;;;;;;;;;;5125161;27;20074;-75
2024/02/16 07:09:31;;;;;;;1.83;0.90;;;;;;;;;;5125848;27;20046;-75
2024/02/16 07:12:02;;;;;;;1.52;1.10;;;;;;;;;;5124349;27;20065;-73
2024/02/16 07:14:33;;;;;;;3.83;0.90;;;;;;;;;;5124586;27;20525;-74
2024/02/16 07:17:03;;;;;;;2.80;1.00;;;;;;;;;;5124093;27;20055;-76
2024/02/16 07:19:33;;;;;;;2.55;1.05;;;;;;;;;;5124967;27;20062;-73
2024/02/16 07:22:06;;;;;;;1.70;1.10;;;;;;;;;;5124116;27;20039;-76
2024/02/16 07:24:37;;;;;;;1.02;0.95;;;;;;;;;;5124899;27;20220;-75
2024/02/16 07:27:07;;;;;;;1.50;1.10;;;;;;;;;;5124573;27;20059;-74
2024/02/16 07:29:38;;;;;;;1.60;1.13;;;;;;;;;;5123914;27;20595;-74
2024/02/16 07:32:09;;;;;;;3.13;1.60;;;;;;;;;;5124206;27;20062;-76
2024/02/16 07:34:54;;;;;;;3.05;1.70;;;;;;;;;;5122509;27;20063;-74
2024/02/16 07:37:25;;;;;;;2.53;1.73;;;;;;;;;;5124850;27;20042;-74
2024/02/16 07:39:54;;;;;;;2.40;1.70;;;;;;;;;;5123571;27;20051;-76
2024/02/16 07:42:25;;;;;;;4.18;2.13;;;;;;;;;;5124698;27;20468;-77
2024/02/16 07:44:54;;;;;;;2.13;1.60;;;;;;;;;;5122602;27;20425;-75
2024/02/16 07:47:27;;;;;;;2.95;2.38;;;;;;;;;;5124589;27;20505;-75
2024/02/16 07:49:57;;;;;;;3.17;2.33;;;;;;;;;;5124256;27;20051;-75
2024/02/16 07:52:27;;;;;;;3.45;2.35;;;;;;;;;;5123166;27;20425;-75
2024/02/16 07:54:58;;;;;;;2.53;2.00;;;;;;;;;;5123819;27;20054;-76
2024/02/16 07:57:28;;;;;;;2.35;2.00;;;;;;;;;;5123562;27;20539;-76
2024/02/16 07:59:59;;;;;;;3.42;2.22;;;;;;;;;;5123394;27;20768;-74
2024/02/16 08:02:32;;;;;;;3.40;1.83;;;;;;;;;;5127681;27;20054;-75
2024/02/16 08:05:02;;;;;;;6.15;2.05;;;;;;;;;;5123932;27;20509;-76
2024/02/16 08:07:34;;;;;;;3.30;2.38;;;;;;;;;;5122220;27;20509;-74
2024/02/16 08:10:05;;;;;;;2.58;2.25;;;;;;;;;;5123865;27;20054;-73
2024/02/16 08:12:36;;;;;;;2.67;2.20;;;;;;;;;;5123524;27;20508;-75
2024/02/16 08:15:06;;;;;;;5.53;2.20;;;;;;;;;;5123905;27;20544;-73
2024/02/16 08:17:38;;;;;;;18.85;2.97;;;;;;;;;;5123659;27;20050;-74
2024/02/16 08:20:09;;;;;;;8.43;2.17;;;;;;;;;;5122858;27;20059;-75
2024/02/16 08:22:41;;;;;;;2.30;2.10;;;;;;;;;;5122847;27;20054;-76
2024/02/16 08:25:11;;;;;;;2.58;1.92;;;;;;;;;;5121408;27;20129;-75
2024/02/16 08:27:45;;;;;;;2.95;2.20;;;;;;;;;;5123441;27;20596;-76
2024/02/16 08:30:15;;;;;;;2.65;2.30;;;;;;;;;;5123802;27;20046;-74
2024/02/16 08:32:46;;;;;;;2.72;1.90;;;;;;;;;;5123618;27;20058;-76
2024/02/16 08:35:17;;;;;;;2.60;2.33;;;;;;;;;;5123544;27;20039;-76
2024/02/16 08:37:48;;;;;;;3.60;2.15;;;;;;;;;;5123435;27;20065;-74
2024/02/16 08:40:18;;;;;;;2.58;1.80;;;;;;;;;;5123727;27;20043;-75
2024/02/16 08:42:49;;;;;;;3.53;2.17;;;;;;;;;;5122731;27;20055;-76
2024/02/16 08:45:19;;;;;;;3.13;2.05;;;;;;;;;;5122751;27;20441;-74
2024/02/16 08:47:50;;;;;;;3.85;2.42;;;;;;;;;;5121945;27;20527;-75
2024/02/16 08:50:22;;;;;;;3.03;2.45;;;;;;;;;;5123805;27;20054;-77
2024/02/16 08:52:52;;;;;;;3.05;2.05;;;;;;;;;;5123796;27;20057;-75
2024/02/16 08:55:22;;;;;;;5.55;2.30;;;;;;;;;;5123745;27;20544;-75
2024/02/16 08:57:53;;;;;;;13.40;2.92;;;;;;;;;;5121724;27;20055;-73
2024/02/16 09:00:26;;;;;;;6.70;2.88;;;;;;;;;;5123321;27;20047;-74
2024/02/16 09:02:57;;;;;;;3.78;3.05;;;;;;;;;;5123224;27;20055;-76
2024/02/16 09:05:28;;;;;;;3.58;2.25;;;;;;;;;;5121898;27;20050;-74
2024/02/16 09:07:58;;;;;;;4.88;2.20;;;;;;;;;;5123149;27;20043;-76
2024/02/16 09:10:28;;;;;;;3.50;2.20;;;;;;;;;;5121485;27;20062;-75
2024/02/16 09:16:33;;;;;;;3.15;2.10;;;;;;;;;;5121919;27;20054;-73
2024/02/16 09:19:04;;;;;;;4.40;2.05;;;;;;;;;;5123281;28;20054;-75
2024/02/16 09:21:35;;;;;;;3.50;1.85;;;;;;;;;;5123107;27;20054;-76
2024/02/16 09:24:10;;;;;;;5.10;2.20;;;;;;;;;;5123166;28;20035;-81
2024/02/16 09:26:40;;;;;;;4.28;1.92;;;;;;;;;;5122885;28;20058;-76
2024/02/16 09:29:11;;;;;;;5.90;2.15;;;;;;;;;;5121621;27;20528;-76
2024/02/16 09:31:42;;;;;;;5.20;2.38;;;;;;;;;;5123043;28;20047;-76
2024/02/16 09:34:13;;;;;;;7.28;2.28;;;;;;;;;;5121832;27;20078;-74
2024/02/16 09:36:47;;;;;;;4.25;2.25;;;;;;;;;;5121538;27;20059;-76
2024/02/16 09:39:18;;;;;;;4.15;2.25;;;;;;;;;;5123300;28;20050;-75
2024/02/16 09:41:55;;;;;;;4.00;2.28;;;;;;;;;;5122968;28;20043;-74
2024/02/16 09:44:25;;;;;;;3.50;2.40;;;;;;;;;;5122427;28;20401;-76
2024/02/16 09:46:56;;;;;;;6.22;2.15;;;;;;;;;;5122049;27;20058;-75
2024/02/16 09:49:27;;;;;;;15.07;2.90;;;;;;;;;;5122929;28;20050;-75
2024/02/16 09:52:12;;;;;;;5.07;2.50;;;;;;;;;;5122422;28;20050;-75
2024/02/16 09:54:42;;;;;;;5.20;3.08;;;;;;;;;;5122825;28;20062;-75
2024/02/16 09:57:12;;;;;;;3.17;2.45;;;;;;;;;;5124552;27;20055;-77
2024/02/16 09:59:43;;;;;;;7.20;2.78;;;;;;;;;;5126071;27;20505;-75
2024/02/16 10:02:13;;;;;;;5.80;2.75;;;;;;;;;;5125604;27;20051;-74
2024/02/16 10:04:44;;;;;;;6.38;2.63;;;;;;;;;;5126497;27;20054;-76
2024/02/16 10:07:15;;;;;;;6.55;1.45;;;;;;;;;;5125596;27;20078;-77
2024/02/16 10:09:45;;;;;;;3.63;2.20;;;;;;;;;;5126357;27;20047;-78
2024/02/16 10:12:19;;;;;;;11.13;3.42;;;;;;;;;;5127016;27;20051;-78
2024/02/16 10:14:58;;;;;;;6.78;4.80;;;;;;;;;;5126494;27;20043;-75
2024/02/16 10:17:29;;;;;;;5.15;2.70;;;;;;;;;;5125229;27;20098;-75
2024/02/16 10:20:06;;;;;;;6.13;2.83;;;;;;;;;;5124309;27;20059;-75
2024/02/16 10:22:37;;;;;;;4.00;2.75;;;;;;;;;;5124333;27;20050;-79
2024/02/16 10:25:17;;;;;;;7.05;2.67;;;;;;;;;;5126134;27;20039;-74
2024/02/16 10:27:47;;;;;;;3.50;2.05;;;;;;;;;;5124928;27;20055;-73
2024/02/16 10:30:19;;;;;;;2.55;2.10;;;;;;;;;;5125609;27;20050;-80
2024/02/16 10:36:51;;;;;;;15.27;2.60;;;;;;;;;;5122934;27;20058;-75
2024/02/16 10:39:23;;;;;;;5.93;2.45;;;;;;;;;;5121537;27;20051;-76
2024/02/16 10:41:57;;;;;;;5.28;2.40;;;;;;;;;;5124993;27;20394;-77
2024/02/16 10:44:28;;;;;;;7.57;2.78;;;;;;;;;;5124927;27;20043;-74
2024/02/16 10:46:59;;;;;;;5.25;2.25;;;;;;;;;;5125583;27;20047;-82
2024/02/16 10:49:32;;;;;;;6.78;2.13;;;;;;;;;;5126578;27;20042;-76
2024/02/16 10:52:05;;;;;;;2.13;1.38;;;;;;;;;;5124039;27;20062;-73
2024/02/16 10:55:05;;;;;;;4.22;2.08;;;;;;;;;;5125878;27;20508;-81
2024/02/16 10:58:12;;;;;;;8.20;2.97;;;;;;;;;;5124577;27;20055;-74
2024/02/16 11:00:57;;;;;;;4.78;1.80;;;;;;;;;;5125190;27;20043;-74
2024/02/16 11:03:29;;;;;;;5.45;1.73;;;;;;;;;;5125399;27;20055;-74
2024/02/16 11:05:59;;;;;;;6.85;1.85;;;;;;;;;;5124715;27;20058;-74
2024/02/16 11:08:38;;;;;;;4.65;2.05;;;;;;;;;;5124037;27;20055;-74
2024/02/16 11:11:12;;;;;;;6.18;2.10;;;;;;;;;;5124548;27;20051;-75
2024/02/16 11:13:44;;;;;;;6.85;2.17;;;;;;;;;;5125678;27;20051;-79
2024/02/16 11:16:17;;;;;;;3.67;1.60;;;;;;;;;;5124358;27;20054;-75
2024/02/16 11:18:49;;;;;;;7.85;2.15;;;;;;;;;;5123172;27;20062;-73
2024/02/16 11:21:20;;;;;;;4.45;1.63;;;;;;;;;;5124486;27;20050;-75
2024/02/16 11:23:50;;;;;;;5.78;2.08;;;;;;;;;;5124819;27;20513;-75
2024/02/16 11:26:23;;;;;;;3.13;1.77;;;;;;;;;;5124885;27;20051;-75
2024/02/16 11:28:55;;;;;;;5.10;1.90;;;;;;;;;;5123775;27;20058;-74
2024/02/16 11:32:04;;;;;;;6.57;2.30;;;;;;;;;;5124579;27;20059;-73
2024/02/16 11:34:56;;;;;;;5.18;1.67;;;;;;;;;;5129345;27;20665;-73
2024/02/16 11:37:26;;;;;;;4.45;1.83;;;;;;;;;;5124544;27;20043;-74
2024/02/16 11:39:57;;;;;;;3.67;1.48;;;;;;;;;;5122997;27;20058;-74
2024/02/16 11:42:27;;;;;;;5.28;2.00;;;;;;;;;;5124419;27;20039;-76
2024/02/16 11:44:58;;;;;;;9.50;1.80;;;;;;;;;;5123492;27;20066;-73
2024/02/16 11:47:28;;;;;;;3.95;1.60;;;;;;;;;;5123602;27;20058;-76
2024/02/16 11:50:05;;;;;;;4.72;1.80;;;;;;;;;;5123201;27;20055;-77
2024/02/16 11:52:36;;;;;;;2.35;1.23;;;;;;;;;;5122927;27;20047;-75
2024/02/16 11:55:39;;;;;;;3.00;1.40;;;;;;;;;;5124149;27;20386;-75
2024/02/16 11:58:10;;;;;;;8.55;2.22;;;;;;;;;;5118543;27;20643;-77
2024/02/16 12:00:41;;;;;;;6.90;2.00;;;;;;;;;;5122149;27;20055;-82
2024/02/16 12:03:12;;;;;;;3.70;1.60;;;;;;;;;;5124006;27;20042;-77
2024/02/16 12:05:54;;;;;;;4.80;1.40;;;;;;;;;;5123206;27;20055;-75
2024/02/16 12:08:39;;;;;;;2.90;1.55;;;;;;;;;;5124206;27;20050;-76
2024/02/16 12:11:10;;;;;;;6.80;1.52;;;;;;;;;;5122415;27;20129;-75
2024/02/16 12:13:41;;;;;;;5.78;1.58;;;;;;;;;;5124248;27;20051;-74
2024/02/16 12:16:12;;;;;;;5.22;1.40;;;;;;;;;;5121847;27;20054;-77
2024/02/16 12:19:10;;;;;;;4.35;1.58;;;;;;;;;;5123618;27;20054;-76
2024/02/16 12:21:41;;;;;;;5.07;1.80;;;;;;;;;;5123796;27;20054;-78
2024/02/16 12:24:11;;;;;;;6.13;1.48;;;;;;;;;;5122920;27;20043;-76
2024/02/16 12:26:42;;;;;;;7.35;1.60;;;;;;;;;;5123376;27;20059;-73
2024/02/16 12:29:13;;;;;;;4.00;1.80;;;;;;;;;;5123022;27;20054;-73
2024/02/16 12:31:49;;;;;;;4.03;1.73;;;;;;;;;;5122665;27;20050;-75
2024/02/16 12:35:34;;;;;;;3.08;1.58;;;;;;;;;;5123606;27;20051;-75
2024/02/16 12:38:19;;;;;;;1.83;1.20;;;;;;;;;;5122089;27;20043;-74
2024/02/16 12:40:52;;;;;;;3.75;1.45;;;;;;;;;;5123821;27;20051;-73
2024/02/16 12:43:23;;;;;;;5.18;1.95;;;;;;;;;;5123499;27;20047;-75
2024/02/16 12:45:53;;;;;;;6.57;1.95;;;;;;;;;;5123403;27;20043;-80
2024/02/16 12:48:25;;;;;;;5.57;1.83;;;;;;;;;;5122829;27;20066;-73
2024/02/16 12:55:14;;;;;;;2.60;1.60;;;;;;;;;;5105612;27;20059;-75
2024/02/16 12:57:44;;;;;;;5.57;1.73;;;;;;;;;;5118488;27;20556;-74
2024/02/16 13:00:18;;;;;;;4.53;1.80;;;;;;;;;;5123653;27;20561;-74
2024/02/16 13:02:51;;;;;;;5.20;2.03;;;;;;;;;;5123437;27;20074;-75
2024/02/16 13:05:22;;;;;;;3.72;1.80;;;;;;;;;;5123236;27;20043;-75
2024/02/16 13:07:52;;;;;;;5.25;1.85;;;;;;;;;;5123144;27;20051;-75
2024/02/16 13:10:23;;;;;;;5.18;1.77;;;;;;;;;;5122686;27;20081;-75
2024/02/16 13:16:43;;;;;;;4.25;1.73;;;;;;;;;;5124058;27;20051;-74
2024/02/16 13:19:13;;;;;;;3.10;1.80;;;;;;;;;;5120905;28;20059;-78
2024/02/16 13:25:36;;;;;;;7.63;2.45;;;;;;;;;;5123160;28;20531;-84
2024/02/16 13:28:08;;;;;;;6.25;2.47;;;;;;;;;;5123239;28;20062;-76
2024/02/16 13:30:38;;;;;;;3.38;1.80;;;;;;;;;;5122643;28;20047;-77
2024/02/16 13:33:09;;;;;;;5.57;2.60;;;;;;;;;;5125653;27;20054;-76
2024/02/16 13:35:40;;;;;;;5.22;2.10;;;;;;;;;;5125741;27;20051;-77
2024/02/16 13:38:11;;;;;;;3.58;2.05;;;;;;;;;;5126920;27;20043;-82
2024/02/16 13:40:42;;;;;;;6.45;3.28;;;;;;;;;;5126137;27;20047;-78
2024/02/16 13:43:13;;;;;;;12.75;3.25;;;;;;;;;;5125966;27;20066;-79
2024/02/16 13:45:53;;;;;;;5.82;2.55;;;;;;;;;;5126615;27;20039;-78
2024/02/16 13:48:24;;;;;;;5.85;3.22;;;;;;;;;;5125639;27;20100;-78
2024/02/16 13:50:56;;;;;;;6.80;2.75;;;;;;;;;;5126479;27;20050;-78
2024/02/16 13:53:27;;;;;;;6.97;2.80;;;;;;;;;;5126017;27;20513;-78
2024/02/16 13:56:00;;;;;;;9.95;2.42;;;;;;;;;;5126182;27;20054;-79
2024/02/16 13:58:34;;;;;;;5.50;2.22;;;;;;;;;;5126290;27;20054;-79
2024/02/16 14:01:09;;;;;;;5.57;2.58;;;;;;;;;;5113929;27;20062;-80
2024/02/16 14:03:39;;;;;;;;;;;;;;;;;;5106420;28;20048;-79
2024/02/16 14:06:11;;;;;;;4.40;1.88;;;;;;;;;;5105019;28;19930;-80
2024/02/16 14:08:42;;;;;;;3.50;1.63;;;;;;;;;;5107701;28;20039;-82
2024/02/16 14:11:13;;;;;;;5.25;2.13;;;;;;;;;;5105961;28;20055;-80
2024/02/16 14:13:43;;;;;;;3.33;2.10;;;;;;;;;;5106101;28;20054;-79
2024/02/16 14:16:13;;;;;;;3.45;1.80;;;;;;;;;;5105592;28;20047;-80
2024/02/16 14:18:44;;;;;;;6.28;2.90;;;;;;;;;;5105058;28;20067;-79
2024/02/16 14:21:14;;;;;;;12.35;2.38;;;;;;;;;;5105527;28;20039;-78
2024/02/16 14:23:45;;;;;;;12.80;2.60;;;;;;;;;;5105912;28;20044;-79
2024/02/16 14:26:17;;;;;;;2.88;2.10;;;;;;;;;;5105596;28;20054;-80
2024/02/16 14:28:47;;;;;;;5.05;2.55;;;;;;;;;;5105618;28;20051;-79
2024/02/16 14:31:20;;;;;;;5.63;3.20;;;;;;;;;;5105055;28;20506;-79
2024/02/16 14:33:51;;;;;;;4.05;2.40;;;;;;;;;;5103862;28;20059;-81
2024/02/16 14:36:21;;;;;;;5.28;1.60;;;;;;;;;;5103339;28;20422;-79
2024/02/16 14:38:51;;;;;;;3.65;2.40;;;;;;;;;;5105387;28;20054;-78
2024/02/16 14:41:23;;;;;;;4.88;3.25;;;;;;;;;;5104984;28;20051;-78
2024/02/16 14:43:54;;;;;;;5.00;2.35;;;;;;;;;;5103568;28;20482;-76
2024/02/16 14:46:27;;;;;;;5.55;1.90;;;;;;;;;;5104955;28;20706;-81
2024/02/16 14:48:58;;;;;;;6.47;4.00;;;;;;;;;;5105081;28;20064;-80
2024/02/16 14:51:29;;;;;;;3.17;2.40;;;;;;;;;;5104916;28;20043;-78
2024/02/16 14:54:00;;;;;;;4.60;2.55;;;;;;;;;;5104440;28;20508;-77
2024/02/16 14:56:53;;;;;;;4.65;2.17;;;;;;;;;;5104342;28;20044;-77
2024/02/16 14:59:24;;;;;;;5.25;1.90;;;;;;;;;;5104826;28;20419;-78
2024/02/16 15:01:54;;;;;;;2.53;1.65;;;;;;;;;;5104668;28;20434;-78
2024/02/16 15:04:25;;;;;;;3.75;1.95;;;;;;;;;;5105119;28;20051;-77
2024/02/16 15:06:56;;;;;;;3.80;2.13;;;;;;;;;;5105768;28;20494;-78
2024/02/16 15:09:26;;;;;;;2.70;2.22;;;;;;;;;;5104540;28;20040;-78
2024/02/16 15:11:56;;;;;;;5.95;2.30;;;;;;;;;;5103654;27;20048;-77
2024/02/16 15:14:27;;;;;;;4.55;2.28;;;;;;;;;;5103507;28;20059;-77
2024/02/16 15:16:58;;;;;;;2.20;1.88;;;;;;;;;;5103940;28;20047;-77
2024/02/16 15:19:29;;;;;;;3.28;1.98;;;;;;;;;;5103813;28;20047;-77
2024/02/16 15:21:59;;;;;;;2.30;2.10;;;;;;;;;;5103996;28;20054;-77
2024/02/16 15:28:28;;;;;;;2.05;1.40;;;;;;;;;;5086054;28;20062;-76
2024/02/16 15:31:00;;;;;;;5.40;1.77;;;;;;;;;;5104159;28;20055;-76
2024/02/16 15:33:30;;;;;;;2.58;1.73;;;;;;;;;;5102210;28;20060;-82
2024/02/16 15:36:00;;;;;;;3.42;1.88;;;;;;;;;;5086298;28;20051;-77
2024/02/16 15:38:30;;;;;;;3.78;2.08;;;;;;;;;;5111773;28;20047;-78
2024/02/16 15:41:01;;;;;;;2.40;1.80;;;;;;;;;;5116928;28;20046;-78
2024/02/16 15:43:32;;;;;;;2.90;1.90;;;;;;;;;;5117145;28;20047;-76
2024/02/16 15:46:02;;;;;;;4.10;1.55;;;;;;;;;;5115417;28;20063;-77
2024/02/16 15:48:32;;;;;;;2.08;1.73;;;;;;;;;;5113862;28;20082;-77